createdAt,value
2018-05-17T00:00:19.540Z,15.90
2018-05-17T00:02:47.087Z,15.92
2018-05-17T00:05:14.578Z,15.90
2018-05-17T00:07:42.096Z,15.84
2018-05-17T00:10:10.876Z,15.92
2018-05-17T00:12:38.388Z,15.77
2018-05-17T00:15:05.908Z,15.73
2018-05-17T00:17:33.407Z,15.70
2018-05-17T00:20:00.927Z,15.68
2018-05-17T00:22:28.435Z,15.54
2018-05-17T00:24:55.942Z,15.66
2018-05-17T00:27:24.232Z,15.66
2018-05-17T00:29:51.769Z,15.55
2018-05-17T00:32:19.283Z,15.58
2018-05-17T00:34:46.781Z,15.56
2018-05-17T00:37:14.312Z,15.56
2018-05-17T00:39:41.813Z,15.42
2018-05-17T00:42:09.310Z,15.39
2018-05-17T00:44:36.819Z,15.39
2018-05-17T00:47:04.791Z,15.46
2018-05-17T00:49:32.765Z,15.59
2018-05-17T00:52:00.297Z,15.68
2018-05-17T00:54:27.839Z,15.69
2018-05-17T00:56:55.343Z,15.48
2018-05-17T00:59:22.878Z,15.24
2018-05-17T01:01:57.920Z,15.01
2018-05-17T01:04:25.426Z,15.17
2018-05-17T01:06:52.928Z,15.34
2018-05-17T01:09:20.454Z,15.34
2018-05-17T01:11:47.959Z,15.35
2018-05-17T01:14:15.547Z,15.39
2018-05-17T01:16:43.056Z,14.98
2018-05-17T01:19:10.662Z,15.10
2018-05-17T01:21:38.657Z,15.28
2018-05-17T01:24:07.437Z,14.94
2018-05-17T01:26:34.930Z,14.79
2018-05-17T01:29:02.465Z,14.94
2018-05-17T01:31:30.747Z,15.09
2018-05-17T01:33:58.254Z,15.09
2018-05-17T01:36:25.773Z,15.05
2018-05-17T01:38:53.268Z,15.14
2018-05-17T01:41:20.774Z,15.09
2018-05-17T01:43:48.281Z,15.05
2018-05-17T01:46:15.784Z,15.11
2018-05-17T01:48:43.271Z,15.16
2018-05-17T01:51:11.541Z,15.13
2018-05-17T01:53:39.044Z,15.24
2018-05-17T01:56:06.605Z,15.26
2018-05-17T01:58:34.111Z,15.27
2018-05-17T02:01:01.612Z,15.23
2018-05-17T02:03:29.679Z,15.23
2018-05-17T02:05:57.216Z,15.20
2018-05-17T02:08:25.463Z,15.17
2018-05-17T02:10:52.974Z,15.13
2018-05-17T02:13:20.503Z,15.07
2018-05-17T02:15:48.005Z,14.99
2018-05-17T02:18:15.553Z,14.87
2018-05-17T02:20:43.056Z,14.87
2018-05-17T02:23:10.602Z,14.80
2018-05-17T02:25:38.111Z,14.75
2018-05-17T02:28:05.615Z,14.68
2018-05-17T02:30:33.108Z,14.62
2018-05-17T02:33:00.656Z,14.60
2018-05-17T02:35:28.143Z,14.61
2018-05-17T02:37:55.652Z,14.63
2018-05-17T02:40:23.156Z,14.62
2018-05-17T02:42:50.657Z,14.57
2018-05-17T02:45:18.199Z,14.67
2018-05-17T02:47:45.692Z,14.62
2018-05-17T02:50:14.091Z,14.52
2018-05-17T02:52:41.595Z,14.54
2018-05-17T02:55:09.100Z,14.53
2018-05-17T02:57:36.599Z,14.54
2018-05-17T03:00:05.911Z,14.53
2018-05-17T03:02:33.414Z,14.57
2018-05-17T03:05:00.919Z,14.48
2018-05-17T03:07:28.435Z,14.61
2018-05-17T03:09:55.952Z,14.62
2018-05-17T03:12:23.475Z,14.62
2018-05-17T03:14:51.040Z,14.58
2018-05-17T03:17:18.533Z,14.53
2018-05-17T03:19:46.112Z,14.53
2018-05-17T03:22:13.614Z,14.53
2018-05-17T03:24:41.126Z,14.58
2018-05-17T03:27:08.615Z,14.65
2018-05-17T03:29:36.123Z,14.61
2018-05-17T03:32:03.664Z,14.62
2018-05-17T03:34:31.167Z,14.59
2018-05-17T03:36:58.686Z,14.60
2018-05-17T03:39:26.183Z,14.61
2018-05-17T03:41:53.794Z,14.61
2018-05-17T03:44:21.287Z,14.63
2018-05-17T03:46:48.788Z,14.75
2018-05-17T03:49:16.292Z,14.79
2018-05-17T03:51:43.794Z,14.75
2018-05-17T03:54:11.307Z,14.81
2018-05-17T03:56:38.840Z,14.92
2018-05-17T03:59:06.355Z,15.03
2018-05-17T04:01:46.663Z,15.11
2018-05-17T04:04:26.032Z,15.11
2018-05-17T04:06:53.532Z,15.22
2018-05-17T04:09:21.042Z,15.33
2018-05-17T04:11:48.560Z,15.37
2018-05-17T04:14:16.086Z,15.32
2018-05-17T04:16:43.669Z,15.29
2018-05-17T04:19:11.218Z,15.37
2018-05-17T04:21:38.742Z,15.38
2018-05-17T04:24:06.257Z,15.39
2018-05-17T04:26:33.795Z,15.40
2018-05-17T04:29:01.304Z,15.42
2018-05-17T04:31:28.816Z,15.48
2018-05-17T04:33:56.329Z,15.53
2018-05-17T04:36:23.835Z,15.44
2018-05-17T04:38:51.346Z,15.44
2018-05-17T04:41:18.859Z,15.50
2018-05-17T04:43:46.372Z,15.57
2018-05-17T04:46:13.886Z,15.59
2018-05-17T04:48:41.387Z,15.58
2018-05-17T04:51:09.826Z,15.69
2018-05-17T04:53:37.395Z,15.75
2018-05-17T04:56:04.924Z,15.89
2018-05-17T04:58:32.439Z,15.97
2018-05-17T05:00:59.951Z,16.19
2018-05-17T05:03:27.455Z,16.26
2018-05-17T05:05:55.012Z,16.36
2018-05-17T05:08:22.536Z,16.50
2018-05-17T05:10:50.042Z,16.67
2018-05-17T05:13:17.546Z,16.61
2018-05-17T05:15:45.065Z,16.67
2018-05-17T05:18:12.583Z,16.63
2018-05-17T05:20:40.096Z,16.72
2018-05-17T05:23:07.608Z,16.79
2018-05-17T05:25:35.118Z,16.93
2018-05-17T05:28:02.643Z,16.97
2018-05-17T05:30:30.147Z,16.98
2018-05-17T05:32:57.653Z,16.98
2018-05-17T05:35:25.159Z,16.95
2018-05-17T05:37:52.667Z,16.95
2018-05-17T05:40:20.169Z,16.99
2018-05-17T05:42:47.668Z,16.94
2018-05-17T05:45:15.171Z,17.11
2018-05-17T05:47:42.668Z,17.01
2018-05-17T05:50:10.175Z,16.90
2018-05-17T05:52:37.691Z,16.86
2018-05-17T05:55:05.196Z,16.87
2018-05-17T05:57:32.708Z,16.91
2018-05-17T06:00:00.204Z,16.91
2018-05-17T06:02:28.674Z,16.96
2018-05-17T06:04:56.189Z,17.05
2018-05-17T06:07:23.691Z,17.12
2018-05-17T06:09:51.204Z,17.21
2018-05-17T06:12:18.699Z,17.30
2018-05-17T06:14:46.205Z,17.34
2018-05-17T06:17:13.712Z,17.35
2018-05-17T06:19:41.287Z,17.38
2018-05-17T06:22:08.859Z,17.49
2018-05-17T06:24:36.351Z,17.57
2018-05-17T06:27:03.863Z,17.40
2018-05-17T06:29:31.400Z,17.53
2018-05-17T06:31:58.905Z,17.53
2018-05-17T06:34:26.419Z,17.55
2018-05-17T06:36:53.910Z,17.60
2018-05-17T06:39:21.401Z,17.68
2018-05-17T06:41:48.913Z,17.63
2018-05-17T06:44:16.445Z,17.67
2018-05-17T06:46:43.936Z,17.82
2018-05-17T06:49:11.439Z,17.98
2018-05-17T06:51:38.959Z,18.06
2018-05-17T06:54:06.449Z,18.18
2018-05-17T06:56:34.021Z,18.28
2018-05-17T06:59:01.542Z,18.49
2018-05-17T07:01:29.045Z,18.63
2018-05-17T07:03:56.564Z,18.72
2018-05-17T07:06:24.120Z,18.58
2018-05-17T07:08:51.644Z,18.48
2018-05-17T07:11:19.202Z,18.58
2018-05-17T07:13:46.718Z,18.80
2018-05-17T07:16:14.243Z,18.79
2018-05-17T07:18:42.188Z,18.63
2018-05-17T07:21:09.338Z,18.61
2018-05-17T07:23:36.856Z,18.68
2018-05-17T07:26:04.356Z,18.72
2018-05-17T07:28:31.861Z,18.62
2018-05-17T07:30:59.474Z,18.66
2018-05-17T07:33:27.012Z,18.71
2018-05-17T07:35:54.523Z,18.90
2018-05-17T07:38:22.026Z,19.03
2018-05-17T07:40:49.603Z,19.01
2018-05-17T07:43:17.102Z,19.08
2018-05-17T07:45:44.601Z,19.00
2018-05-17T07:48:12.132Z,19.17
2018-05-17T07:50:39.670Z,19.30
2018-05-17T07:53:07.181Z,19.52
2018-05-17T07:55:34.714Z,19.29
2018-05-17T07:58:02.222Z,19.44
2018-05-17T08:00:29.837Z,19.82
2018-05-17T08:02:57.305Z,19.95
2018-05-17T08:05:24.811Z,19.78
2018-05-17T08:07:52.397Z,20.10
2018-05-17T08:10:19.936Z,20.32
2018-05-17T08:12:47.460Z,20.29
2018-05-17T08:15:14.965Z,20.39
2018-05-17T08:17:42.477Z,20.31
2018-05-17T08:20:10.081Z,19.85
2018-05-17T08:22:37.621Z,19.69
2018-05-17T08:25:05.155Z,19.88
2018-05-17T08:27:32.666Z,20.19
2018-05-17T08:30:00.234Z,20.23
2018-05-17T08:32:27.735Z,20.05
2018-05-17T08:34:55.240Z,19.83
2018-05-17T08:37:22.823Z,20.00
2018-05-17T08:39:50.300Z,20.25
2018-05-17T08:42:17.837Z,20.56
2018-05-17T08:44:46.523Z,20.64
2018-05-17T08:47:14.077Z,20.77
2018-05-17T08:49:41.614Z,20.86
2018-05-17T08:52:09.141Z,20.84
2018-05-17T08:54:36.655Z,20.95
2018-05-17T08:57:04.146Z,21.04
2018-05-17T08:59:31.643Z,21.13
2018-05-17T09:01:59.193Z,21.30
2018-05-17T09:04:26.698Z,21.45
2018-05-17T09:06:54.236Z,21.30
2018-05-17T09:09:21.732Z,21.13
2018-05-17T09:11:49.230Z,21.30
2018-05-17T09:14:16.766Z,21.70
2018-05-17T09:16:44.261Z,21.80
2018-05-17T09:19:11.794Z,21.69
2018-05-17T09:21:39.290Z,21.64
2018-05-17T09:24:06.792Z,21.95
2018-05-17T09:26:34.437Z,21.67
2018-05-17T09:29:01.984Z,21.42
2018-05-17T09:31:29.477Z,21.74
2018-05-17T09:33:56.979Z,22.01
2018-05-17T09:36:24.492Z,22.37
2018-05-17T09:38:52.040Z,22.27
2018-05-17T09:41:19.573Z,22.17
2018-05-17T09:43:47.128Z,22.24
2018-05-17T09:46:14.625Z,22.32
2018-05-17T09:48:42.127Z,22.45
2018-05-17T09:51:09.644Z,22.40
2018-05-17T09:53:37.148Z,22.07
2018-05-17T09:56:04.658Z,22.15
2018-05-17T09:58:32.221Z,21.98
2018-05-17T10:00:59.724Z,22.18
2018-05-17T10:03:27.234Z,22.24
2018-05-17T10:05:54.847Z,22.46
2018-05-17T10:08:22.355Z,22.34
2018-05-17T10:10:49.891Z,22.37
2018-05-17T10:13:17.428Z,22.03
2018-05-17T10:15:44.972Z,22.04
2018-05-17T10:18:12.506Z,22.22
2018-05-17T10:20:40.054Z,22.17
2018-05-17T10:23:07.575Z,22.27
2018-05-17T10:25:35.097Z,22.45
2018-05-17T10:28:02.612Z,22.41
2018-05-17T10:30:30.144Z,22.63
2018-05-17T10:32:57.654Z,22.32
2018-05-17T10:35:25.155Z,22.35
2018-05-17T10:37:52.696Z,22.12
2018-05-17T10:40:21.380Z,22.00
2018-05-17T10:42:48.884Z,22.01
2018-05-17T10:45:16.375Z,22.47
2018-05-17T10:47:43.939Z,22.39
2018-05-17T10:50:11.428Z,22.30
2018-05-17T10:52:38.968Z,22.58
2018-05-17T10:55:06.459Z,22.95
2018-05-17T10:57:33.957Z,23.42
2018-05-17T11:00:01.552Z,23.92
2018-05-17T11:02:29.132Z,24.29
2018-05-17T11:04:56.647Z,24.27
2018-05-17T11:07:24.155Z,24.95
2018-05-17T11:09:51.715Z,23.75
2018-05-17T11:12:19.278Z,24.35
2018-05-17T11:14:46.865Z,24.91
2018-05-17T11:17:14.395Z,24.59
2018-05-17T11:19:41.890Z,24.76
2018-05-17T11:22:09.403Z,25.17
2018-05-17T11:24:37.022Z,25.42
2018-05-17T11:27:04.533Z,25.93
2018-05-17T11:29:32.071Z,25.95
2018-05-17T11:31:59.590Z,25.90
2018-05-17T11:34:27.102Z,26.46
2018-05-17T11:36:54.669Z,26.78
2018-05-17T11:39:22.194Z,27.11
2018-05-17T11:41:49.701Z,27.57
2018-05-17T11:44:17.335Z,27.36
2018-05-17T11:46:44.864Z,26.93
2018-05-17T11:49:12.419Z,26.66
2018-05-17T11:51:39.928Z,26.27
2018-05-17T11:54:07.461Z,25.97
2018-05-17T11:56:34.973Z,25.73
2018-05-17T11:59:02.471Z,25.24
2018-05-17T12:01:30.053Z,25.54
2018-05-17T12:03:57.511Z,25.19
2018-05-17T12:06:25.027Z,25.30
2018-05-17T12:08:53.819Z,24.97
2018-05-17T12:11:21.321Z,25.66
2018-05-17T12:13:48.886Z,26.17
2018-05-17T12:16:16.376Z,26.80
2018-05-17T12:18:43.882Z,26.84
2018-05-17T12:21:11.384Z,26.51
2018-05-17T12:23:38.894Z,26.96
2018-05-17T12:26:06.402Z,27.15
2018-05-17T12:28:33.902Z,27.85
2018-05-17T12:31:01.453Z,28.36
2018-05-17T12:33:28.965Z,27.43
2018-05-17T12:35:56.470Z,26.98
2018-05-17T12:38:24.039Z,26.76
2018-05-17T12:40:51.543Z,26.69
2018-05-17T12:43:19.053Z,25.84
2018-05-17T12:45:46.535Z,25.05
2018-05-17T12:48:14.035Z,24.24
2018-05-17T12:50:42.465Z,24.47
2018-05-17T12:53:09.956Z,25.69
2018-05-17T12:55:37.464Z,26.10
2018-05-17T12:58:04.988Z,27.30
2018-05-17T13:00:32.481Z,27.23
2018-05-17T13:02:59.990Z,27.27
2018-05-17T13:05:27.499Z,27.65
2018-05-17T13:07:55.001Z,27.69
2018-05-17T13:10:22.528Z,28.46
2018-05-17T13:12:50.030Z,27.85
2018-05-17T13:15:17.577Z,27.86
2018-05-17T13:17:45.124Z,27.08
2018-05-17T13:20:12.653Z,27.62
2018-05-17T13:22:40.218Z,27.09
2018-05-17T13:25:07.726Z,26.78
2018-05-17T13:27:35.261Z,26.73
2018-05-17T13:30:03.978Z,26.87
2018-05-17T13:32:31.489Z,27.14
2018-05-17T13:34:58.988Z,27.82
2018-05-17T13:37:26.631Z,27.48
2018-05-17T13:39:54.048Z,26.83
2018-05-17T13:42:21.544Z,26.90
2018-05-17T13:44:49.100Z,26.33
2018-05-17T13:47:16.605Z,26.21
2018-05-17T13:49:44.115Z,26.53
2018-05-17T13:52:11.637Z,27.28
2018-05-17T13:54:39.167Z,28.01
2018-05-17T13:57:06.683Z,28.05
2018-05-17T13:59:34.234Z,27.16
2018-05-17T14:02:01.839Z,26.39
2018-05-17T14:04:29.286Z,26.47
2018-05-17T14:06:56.790Z,26.24
2018-05-17T14:09:24.287Z,26.25
2018-05-17T14:11:51.785Z,25.54
2018-05-17T14:14:19.336Z,25.47
2018-05-17T14:16:46.836Z,25.25
2018-05-17T14:19:14.385Z,25.06
2018-05-17T14:21:41.892Z,24.79
2018-05-17T14:24:09.434Z,24.47
2018-05-17T14:26:37.300Z,24.23
2018-05-17T14:29:04.827Z,24.33
2018-05-17T14:31:32.393Z,24.93
2018-05-17T14:33:59.898Z,24.86
2018-05-17T14:36:27.422Z,25.03
2018-05-17T14:38:54.929Z,24.87
2018-05-17T14:41:22.485Z,24.88
2018-05-17T14:43:49.995Z,24.14
2018-05-17T14:46:17.492Z,23.67
2018-05-17T14:48:45.026Z,23.77
2018-05-17T14:51:12.619Z,23.93
2018-05-17T14:53:40.137Z,24.01
2018-05-17T14:56:07.696Z,24.53
2018-05-17T14:58:35.225Z,25.59
2018-05-17T15:01:02.766Z,26.46
2018-05-17T15:03:30.284Z,27.01
2018-05-17T15:05:58.275Z,27.24
2018-05-17T15:08:25.842Z,27.50
2018-05-17T15:10:53.349Z,28.23
2018-05-17T15:13:20.866Z,28.56
2018-05-17T15:15:48.362Z,28.53
2018-05-17T15:18:15.882Z,28.27
2018-05-17T15:20:43.400Z,28.38
2018-05-17T15:23:10.905Z,28.74
2018-05-17T15:25:38.450Z,28.72
2018-05-17T15:28:05.996Z,28.50
2018-05-17T15:30:33.595Z,28.15
2018-05-17T15:33:01.128Z,28.00
2018-05-17T15:35:28.631Z,28.41
2018-05-17T15:37:56.149Z,28.41
2018-05-17T15:40:23.652Z,28.08
2018-05-17T15:42:51.212Z,28.24
2018-05-17T15:45:18.765Z,28.60
2018-05-17T15:47:46.318Z,27.15
2018-05-17T15:50:13.832Z,27.57
2018-05-17T15:52:41.351Z,27.52
2018-05-17T15:55:08.848Z,27.36
2018-05-17T15:57:36.395Z,25.79
2018-05-17T16:00:05.676Z,25.17
2018-05-17T16:02:33.184Z,25.35
2018-05-17T16:05:00.696Z,25.93
2018-05-17T16:07:28.303Z,26.29
2018-05-17T16:09:55.830Z,26.39
2018-05-17T16:12:23.342Z,26.99
2018-05-17T16:14:50.986Z,27.44
2018-05-17T16:17:18.410Z,27.48
2018-05-17T16:19:45.929Z,27.33
2018-05-17T16:22:13.453Z,26.73
2018-05-17T16:24:41.017Z,25.91
2018-05-17T16:27:08.521Z,25.56
2018-05-17T16:29:36.029Z,25.18
2018-05-17T16:32:03.599Z,25.14
2018-05-17T16:34:31.116Z,24.57
2018-05-17T16:36:58.625Z,24.29
2018-05-17T16:39:26.225Z,23.89
2018-05-17T16:41:53.725Z,24.05
2018-05-17T16:44:21.236Z,23.91
2018-05-17T16:46:48.743Z,23.99
2018-05-17T16:49:16.255Z,24.32
2018-05-17T16:51:43.795Z,24.66
2018-05-17T16:54:11.386Z,24.67
2018-05-17T16:56:38.903Z,24.60
2018-05-17T16:59:06.463Z,24.40
2018-05-17T17:01:34.001Z,24.28
2018-05-17T17:04:01.514Z,24.05
2018-05-17T17:06:29.058Z,24.04
2018-05-17T17:08:56.593Z,24.10
2018-05-17T17:11:24.185Z,24.28
2018-05-17T17:13:51.782Z,24.39
2018-05-17T17:16:19.307Z,24.41
2018-05-17T17:18:46.831Z,24.18
2018-05-17T17:21:15.133Z,23.81
2018-05-17T17:23:42.692Z,23.76
2018-05-17T17:26:10.302Z,23.52
2018-05-17T17:28:37.903Z,23.64
2018-05-17T17:31:05.443Z,23.66
2018-05-17T17:33:32.960Z,23.55
2018-05-17T17:36:00.651Z,23.60
2018-05-17T17:38:28.233Z,23.37
2018-05-17T17:40:55.770Z,23.22
2018-05-17T17:43:24.079Z,22.77
2018-05-17T17:45:51.639Z,22.39
2018-05-17T17:48:19.193Z,22.15
2018-05-17T17:50:46.738Z,22.03
2018-05-17T17:53:14.252Z,21.86
2018-05-17T17:55:41.837Z,21.63
2018-05-17T17:58:09.356Z,21.48
2018-05-17T18:00:37.628Z,21.66
2018-05-17T18:03:05.142Z,21.59
2018-05-17T18:05:32.712Z,21.33
2018-05-17T18:08:00.175Z,21.12
2018-05-17T18:10:27.735Z,21.08
2018-05-17T18:12:55.249Z,20.98
2018-05-17T18:15:22.742Z,20.93
2018-05-17T18:17:50.290Z,20.88
2018-05-17T18:20:17.820Z,20.83
2018-05-17T18:22:45.325Z,20.74
2018-05-17T18:25:12.827Z,20.64
2018-05-17T18:27:40.358Z,20.53
2018-05-17T18:30:07.867Z,20.42
2018-05-17T18:32:35.412Z,20.30
2018-05-17T18:35:02.964Z,20.27
2018-05-17T18:37:30.470Z,20.28
2018-05-17T18:39:57.978Z,20.16
2018-05-17T18:42:25.540Z,20.17
2018-05-17T18:44:53.088Z,20.18
2018-05-17T18:47:20.590Z,20.08
2018-05-17T18:49:48.884Z,19.97
2018-05-17T18:52:16.430Z,19.84
2018-05-17T18:54:43.977Z,19.70
2018-05-17T18:57:11.528Z,19.57
2018-05-17T18:59:39.040Z,19.50
2018-05-17T19:02:06.597Z,19.46
2018-05-17T19:04:34.246Z,19.51
2018-05-17T19:07:02.546Z,19.50
2018-05-17T19:09:30.923Z,19.42
2018-05-17T19:11:58.464Z,19.43
2018-05-17T19:14:25.984Z,19.39
2018-05-17T19:16:54.221Z,19.42
2018-05-17T19:19:22.487Z,19.35
2018-05-17T19:21:50.034Z,19.38
2018-05-17T19:24:19.565Z,19.34
2018-05-17T19:26:48.037Z,19.34
2018-05-17T19:29:15.667Z,19.32
2018-05-17T19:31:43.358Z,19.21
2018-05-17T19:34:10.828Z,19.24
2018-05-17T19:36:39.943Z,19.22
2018-05-17T19:39:07.520Z,19.07
2018-05-17T19:41:35.155Z,18.94
2018-05-17T19:44:02.702Z,18.80
2018-05-17T19:46:32.315Z,18.80
2018-05-17T19:49:00.862Z,18.81
2018-05-17T19:51:28.435Z,18.83
2018-05-17T19:53:55.939Z,18.76
2018-05-17T19:56:25.329Z,18.76
2018-05-17T19:58:52.846Z,18.69
2018-05-17T20:01:20.428Z,18.68
2018-05-17T20:03:48.003Z,18.69
2018-05-17T20:06:15.503Z,18.67
2018-05-17T20:08:43.004Z,18.71
2018-05-17T20:15:45.812Z,18.70
2018-05-17T20:18:13.357Z,18.74
2018-05-17T20:20:40.882Z,18.60
2018-05-17T20:23:08.506Z,18.66
2018-05-17T20:25:37.258Z,18.68
2018-05-17T20:28:04.823Z,18.66
2018-05-17T20:30:32.380Z,18.60
2018-05-17T20:33:02.908Z,18.61
2018-05-17T20:35:30.412Z,18.58
2018-05-17T20:37:58.780Z,18.59
2018-05-17T20:40:27.886Z,18.46
2018-05-17T20:42:55.436Z,18.34
2018-05-17T20:45:23.040Z,18.33
2018-05-17T20:47:50.574Z,18.13
2018-05-17T20:50:18.941Z,18.29
2018-05-17T20:52:46.477Z,18.20
2018-05-17T20:55:14.057Z,18.12
2018-05-17T20:57:41.623Z,18.12
2018-05-17T21:00:09.236Z,18.14
2018-05-17T21:02:36.748Z,18.11
2018-05-17T21:05:04.330Z,18.14
2018-05-17T21:07:32.251Z,18.08
2018-05-17T21:09:59.752Z,18.06
2018-05-17T21:12:27.334Z,18.02
2018-05-17T21:14:54.838Z,17.98
2018-05-17T21:17:22.387Z,17.85
2018-05-17T21:19:49.898Z,17.89
2018-05-17T21:22:18.362Z,17.82
2018-05-17T21:24:45.872Z,17.85
2018-05-17T21:27:13.406Z,17.86
2018-05-17T21:29:40.915Z,17.84
2018-05-17T21:32:08.522Z,17.87
2018-05-17T21:34:36.083Z,17.86
2018-05-17T21:37:03.602Z,17.86
2018-05-17T21:39:31.200Z,17.85
2018-05-17T21:41:58.664Z,17.81
2018-05-17T21:44:26.166Z,17.79
2018-05-17T21:46:53.671Z,17.77
2018-05-17T21:49:21.220Z,17.75
2018-05-17T21:51:48.763Z,17.66
2018-05-17T21:54:16.284Z,17.65
2018-05-17T21:56:43.801Z,17.57
2018-05-17T21:59:11.320Z,17.38
2018-05-17T22:01:38.822Z,17.20
2018-05-17T22:04:06.350Z,17.05
2018-05-17T22:06:33.888Z,16.56
2018-05-17T22:09:01.401Z,16.41
2018-05-17T22:11:28.908Z,16.26
2018-05-17T22:13:56.412Z,16.14
2018-05-17T22:16:23.963Z,16.15
2018-05-17T22:18:51.492Z,16.34
2018-05-17T22:21:18.991Z,16.50
2018-05-17T22:23:46.527Z,16.60
2018-05-17T22:26:14.023Z,16.66
2018-05-17T22:28:41.512Z,16.68
2018-05-17T22:31:09.011Z,16.76
2018-05-17T22:33:36.517Z,16.82
2018-05-17T22:36:04.026Z,16.82
2018-05-17T22:38:31.547Z,16.83
2018-05-17T22:40:59.050Z,16.80
2018-05-17T22:43:26.568Z,16.77
2018-05-17T22:45:54.117Z,16.68
2018-05-17T22:48:21.632Z,16.67
2018-05-17T22:50:49.155Z,16.58
2018-05-17T22:53:16.655Z,16.74
2018-05-17T22:55:44.164Z,16.71
2018-05-17T22:58:23.645Z,16.74
2018-05-17T23:00:51.183Z,16.77
2018-05-17T23:03:18.689Z,16.71
2018-05-17T23:05:46.691Z,16.72
2018-05-17T23:08:14.247Z,16.70
2018-05-17T23:10:41.763Z,16.73
2018-05-17T23:13:09.279Z,16.75
2018-05-17T23:15:36.778Z,16.84
2018-05-17T23:18:04.299Z,16.79
2018-05-17T23:20:31.794Z,16.77
2018-05-17T23:22:59.366Z,16.71
2018-05-17T23:25:26.880Z,16.70
2018-05-17T23:27:54.400Z,16.66
2018-05-17T23:30:21.951Z,16.63
2018-05-17T23:32:49.464Z,16.57
2018-05-17T23:35:17.021Z,16.63
2018-05-17T23:37:44.531Z,16.60
2018-05-17T23:40:23.950Z,16.49
2018-05-17T23:42:51.446Z,16.38
2018-05-17T23:45:18.991Z,16.32
2018-05-17T23:47:46.500Z,16.23
2018-05-17T23:50:13.999Z,16.20
2018-05-17T23:52:41.549Z,16.09
2018-05-17T23:55:09.111Z,16.06
2018-05-17T23:57:36.611Z,16.06
